Time;durP1;ratioP1;P1;durP2;ratioP2;P2;SDS_P1;SDS_P2;PMS_P1;PMS_P2;Temp;Humidity;BMP_temperature;BMP_pressure;BME280_temperature;BME280_humidity;BME280_pressure;Samples;Min_cycle;Max_cycle;Signal;HPM_P1;HPM_P2
2023/12/01 00:02:28;;;;;;;11.5;5.6;;;;;;;;;;;;;
2023/12/01 00:04:53;;;;;;;10.4;4.7;;;;;;;;;;;;;
2023/12/01 00:07:18;;;;;;;9.4;5;;;;;;;;;;;;;
2023/12/01 00:09:45;;;;;;;8.7;5.1;;;;;;;;;;;;;
2023/12/01 00:12:11;;;;;;;8.9;5.1;;;;;;;;;;;;;
2023/12/01 00:14:38;;;;;;;5.8;4.2;;;;;;;;;;;;;
2023/12/01 00:17:03;;;;;;;7.6;4.3;;;;;;;;;;;;;
2023/12/01 00:19:28;;;;;;;5.6;3.8;;;;;;;;;;;;;
2023/12/01 00:21:57;;;;;;;6;4.1;;;;;;;;;;;;;
2023/12/01 00:24:21;;;;;;;5.8;3.9;;;;;;;;;;;;;
2023/12/01 00:26:50;;;;;;;5.3;3.8;;;;;;;;;;;;;
2023/12/01 00:29:19;;;;;;;5.7;3.6;;;;;;;;;;;;;
2023/12/01 00:31:49;;;;;;;5.7;3.6;;;;;;;;;;;;;
2023/12/01 00:34:16;;;;;;;8.9;5.1;;;;;;;;;;;;;
2023/12/01 00:36:41;;;;;;;7;4.6;;;;;;;;;;;;;
2023/12/01 00:39:08;;;;;;;6.1;4.6;;;;;;;;;;;;;
2023/12/01 00:41:32;;;;;;;4.4;3.6;;;;;;;;;;;;;
2023/12/01 00:44:07;;;;;;;6.2;3.3;;;;;;;;;;;;;
2023/12/01 00:46:33;;;;;;;4.3;2.7;;;;;;;;;;;;;
2023/12/01 00:48:58;;;;;;;3.3;2.2;;;;;;;;;;;;;
2023/12/01 00:51:24;;;;;;;4;2.4;;;;;;;;;;;;;
2023/12/01 00:53:54;;;;;;;2.3;1.9;;;;;;;;;;;;;
2023/12/01 00:56:19;;;;;;;1.7;1.5;;;;;;;;;;;;;
2023/12/01 00:58:44;;;;;;;3.6;2.2;;;;;;;;;;;;;
2023/12/01 01:01:10;;;;;;;3.7;2.4;;;;;;;;;;;;;
2023/12/01 01:03:37;;;;;;;2.5;2;;;;;;;;;;;;;
2023/12/01 01:06:02;;;;;;;2;1.4;;;;;;;;;;;;;
2023/12/01 01:08:30;;;;;;;2.1;1.5;;;;;;;;;;;;;
2023/12/01 01:10:55;;;;;;;1.5;1.3;;;;;;;;;;;;;
2023/12/01 01:13:21;;;;;;;1.9;1.4;;;;;;;;;;;;;
2023/12/01 01:15:46;;;;;;;2;1.8;;;;;;;;;;;;;
2023/12/01 01:18:13;;;;;;;1.7;1.6;;;;;;;;;;;;;
2023/12/01 01:20:38;;;;;;;4;2.4;;;;;;;;;;;;;
2023/12/01 01:23:04;;;;;;;2.8;2.2;;;;;;;;;;;;;
2023/12/01 01:25:30;;;;;;;3.2;2.5;;;;;;;;;;;;;
2023/12/01 01:27:57;;;;;;;4;2.3;;;;;;;;;;;;;
2023/12/01 01:30:22;;;;;;;2.5;2.2;;;;;;;;;;;;;
2023/12/01 01:32:51;;;;;;;3.1;2;;;;;;;;;;;;;
2023/12/01 01:35:22;;;;;;;2;1.5;;;;;;;;;;;;;
2023/12/01 01:37:51;;;;;;;1.8;1.3;;;;;;;;;;;;;
2023/12/01 01:40:16;;;;;;;2;1.3;;;;;;;;;;;;;
2023/12/01 01:42:44;;;;;;;1.1;1;;;;;;;;;;;;;
2023/12/01 01:45:09;;;;;;;1.1;1;;;;;;;;;;;;;
2023/12/01 01:47:39;;;;;;;1.3;1;;;;;;;;;;;;;
2023/12/01 01:50:04;;;;;;;1.2;1.1;;;;;;;;;;;;;
2023/12/01 01:52:34;;;;;;;1.3;1.1;;;;;;;;;;;;;
2023/12/01 01:54:59;;;;;;;1.4;1.3;;;;;;;;;;;;;
2023/12/01 01:57:24;;;;;;;2.2;1.3;;;;;;;;;;;;;
2023/12/01 01:59:51;;;;;;;1.7;1.4;;;;;;;;;;;;;
2023/12/01 02:02:16;;;;;;;1.7;1.6;;;;;;;;;;;;;
2023/12/01 02:04:43;;;;;;;2.4;1.4;;;;;;;;;;;;;
2023/12/01 02:07:09;;;;;;;1.9;1.6;;;;;;;;;;;;;
2023/12/01 02:09:36;;;;;;;3;1.7;;;;;;;;;;;;;
2023/12/01 02:12:01;;;;;;;1.6;1.4;;;;;;;;;;;;;
2023/12/01 02:14:28;;;;;;;2.8;1.8;;;;;;;;;;;;;
2023/12/01 02:16:53;;;;;;;2.3;1.6;;;;;;;;;;;;;
2023/12/01 02:19:20;;;;;;;2.8;1.6;;;;;;;;;;;;;
2023/12/01 02:21:46;;;;;;;2.8;2.3;;;;;;;;;;;;;
2023/12/01 02:24:11;;;;;;;2.9;1.9;;;;;;;;;;;;;
2023/12/01 02:26:36;;;;;;;3;2.1;;;;;;;;;;;;;
2023/12/01 02:29:02;;;;;;;3.1;2;;;;;;;;;;;;;
2023/12/01 02:31:27;;;;;;;2.6;2.1;;;;;;;;;;;;;
2023/12/01 02:33:55;;;;;;;3.4;2;;;;;;;;;;;;;
2023/12/01 02:36:19;;;;;;;2;1.7;;;;;;;;;;;;;
2023/12/01 02:38:45;;;;;;;2.7;1.9;;;;;;;;;;;;;
2023/12/01 02:41:11;;;;;;;2.6;1.7;;;;;;;;;;;;;
2023/12/01 02:43:39;;;;;;;3.6;2.2;;;;;;;;;;;;;
2023/12/01 02:46:08;;;;;;;2;1.7;;;;;;;;;;;;;
2023/12/01 02:48:33;;;;;;;4.7;2.4;;;;;;;;;;;;;
2023/12/01 02:50:59;;;;;;;3.1;2.4;;;;;;;;;;;;;
2023/12/01 02:53:25;;;;;;;4.1;2.7;;;;;;;;;;;;;
2023/12/01 02:55:51;;;;;;;3.7;2.2;;;;;;;;;;;;;
2023/12/01 02:58:17;;;;;;;2.4;2;;;;;;;;;;;;;
2023/12/01 03:00:44;;;;;;;2.6;2.1;;;;;;;;;;;;;
2023/12/01 03:03:08;;;;;;;2.6;2;;;;;;;;;;;;;
2023/12/01 03:05:33;;;;;;;2.7;1.7;;;;;;;;;;;;;
2023/12/01 03:07:58;;;;;;;2.3;1.7;;;;;;;;;;;;;
2023/12/01 03:10:25;;;;;;;2.2;1.9;;;;;;;;;;;;;
2023/12/01 03:12:49;;;;;;;2.9;1.8;;;;;;;;;;;;;
2023/12/01 03:15:20;;;;;;;3.1;1.9;;;;;;;;;;;;;
2023/12/01 03:17:47;;;;;;;4.5;1.6;;;;;;;;;;;;;
2023/12/01 03:20:14;;;;;;;2.1;1.9;;;;;;;;;;;;;
2023/12/01 03:22:40;;;;;;;2.3;1.9;;;;;;;;;;;;;
2023/12/01 03:25:09;;;;;;;3.1;2.2;;;;;;;;;;;;;
2023/12/01 03:27:30;;;;;;;3;2.7;;;;;;;;;;;;;
2023/12/01 03:29:56;;;;;;;2.7;2.3;;;;;;;;;;;;;
2023/12/01 03:32:22;;;;;;;3;2.2;;;;;;;;;;;;;
2023/12/01 03:34:48;;;;;;;3.3;2.1;;;;;;;;;;;;;
2023/12/01 03:37:13;;;;;;;2.2;2;;;;;;;;;;;;;
2023/12/01 03:39:40;;;;;;;2.5;1.9;;;;;;;;;;;;;
2023/12/01 03:42:05;;;;;;;2;1.8;;;;;;;;;;;;;
2023/12/01 03:44:32;;;;;;;2.2;1.9;;;;;;;;;;;;;
2023/12/01 03:46:56;;;;;;;2.2;1.7;;;;;;;;;;;;;
2023/12/01 03:49:24;;;;;;;2.5;1.9;;;;;;;;;;;;;
2023/12/01 03:51:51;;;;;;;1.6;1.5;;;;;;;;;;;;;
2023/12/01 03:54:17;;;;;;;1.8;1.5;;;;;;;;;;;;;
2023/12/01 03:56:41;;;;;;;1.5;1.4;;;;;;;;;;;;;
2023/12/01 03:59:09;;;;;;;2.8;1.8;;;;;;;;;;;;;
2023/12/01 04:02:32;;;;;;;2.6;1.6;;;;;;;;;;;;;
2023/12/01 04:05:02;;;;;;;3.7;1.9;;;;;;;;;;;;;
2023/12/01 04:07:30;;;;;;;2.1;1.8;;;;;;;;;;;;;
2023/12/01 04:09:53;;;;;;;1.7;1.6;;;;;;;;;;;;;
2023/12/01 04:12:20;;;;;;;3.1;1.5;;;;;;;;;;;;;
2023/12/01 04:14:45;;;;;;;2.6;1.7;;;;;;;;;;;;;
2023/12/01 04:17:13;;;;;;;1.6;1.5;;;;;;;;;;;;;
2023/12/01 04:19:38;;;;;;;1.6;1.4;;;;;;;;;;;;;
2023/12/01 04:22:06;;;;;;;1.9;1.6;;;;;;;;;;;;;
2023/12/01 04:24:33;;;;;;;1.8;1.5;;;;;;;;;;;;;
2023/12/01 04:26:56;;;;;;;1.9;1.6;;;;;;;;;;;;;
2023/12/01 04:29:23;;;;;;;1.4;1.3;;;;;;;;;;;;;
2023/12/01 04:31:48;;;;;;;1.9;1.5;;;;;;;;;;;;;
2023/12/01 04:34:13;;;;;;;1.7;1.6;;;;;;;;;;;;;
2023/12/01 04:36:38;;;;;;;2.3;1.4;;;;;;;;;;;;;
2023/12/01 04:39:14;;;;;;;2;1.6;;;;;;;;;;;;;
2023/12/01 04:41:31;;;;;;;1.8;1.5;;;;;;;;;;;;;
2023/12/01 04:44:00;;;;;;;2.5;1.5;;;;;;;;;;;;;
2023/12/01 04:46:25;;;;;;;1.7;1.6;;;;;;;;;;;;;
2023/12/01 04:48:52;;;;;;;1.5;1.4;;;;;;;;;;;;;
2023/12/01 04:51:15;;;;;;;2.6;1.8;;;;;;;;;;;;;
2023/12/01 04:53:42;;;;;;;3.5;2;;;;;;;;;;;;;
2023/12/01 04:56:07;;;;;;;2.8;2;;;;;;;;;;;;;
2023/12/01 04:58:35;;;;;;;2.6;2;;;;;;;;;;;;;
2023/12/01 05:01:00;;;;;;;3.7;2.2;;;;;;;;;;;;;
2023/12/01 05:03:28;;;;;;;2.8;1.8;;;;;;;;;;;;;
2023/12/01 05:05:53;;;;;;;2.1;1.6;;;;;;;;;;;;;
2023/12/01 05:08:20;;;;;;;3.7;1.7;;;;;;;;;;;;;
2023/12/01 05:10:46;;;;;;;2;1.5;;;;;;;;;;;;;
2023/12/01 05:13:14;;;;;;;2;1.8;;;;;;;;;;;;;
2023/12/01 05:15:38;;;;;;;3.7;1.7;;;;;;;;;;;;;
2023/12/01 05:18:04;;;;;;;2.2;1.7;;;;;;;;;;;;;
2023/12/01 05:20:30;;;;;;;2.3;1.8;;;;;;;;;;;;;
2023/12/01 05:22:57;;;;;;;2.4;1.6;;;;;;;;;;;;;
2023/12/01 05:25:25;;;;;;;2.2;1.8;;;;;;;;;;;;;
2023/12/01 05:27:48;;;;;;;2.2;1.7;;;;;;;;;;;;;
2023/12/01 05:30:16;;;;;;;2.1;1.7;;;;;;;;;;;;;
2023/12/01 05:32:48;;;;;;;3.2;2.2;;;;;;;;;;;;;
2023/12/01 05:35:19;;;;;;;2.3;1.9;;;;;;;;;;;;;
2023/12/01 05:37:47;;;;;;;2.4;2.1;;;;;;;;;;;;;
2023/12/01 05:40:14;;;;;;;2.6;2.3;;;;;;;;;;;;;
2023/12/01 05:42:36;;;;;;;4.3;2.9;;;;;;;;;;;;;
2023/12/01 05:45:11;;;;;;;3.5;3.2;;;;;;;;;;;;;
2023/12/01 05:47:32;;;;;;;4.1;3.4;;;;;;;;;;;;;
2023/12/01 05:49:57;;;;;;;5.2;3.7;;;;;;;;;;;;;
2023/12/01 05:52:24;;;;;;;3.6;2.9;;;;;;;;;;;;;
2023/12/01 05:54:52;;;;;;;4.3;2.5;;;;;;;;;;;;;
2023/12/01 05:57:14;;;;;;;2.8;2.2;;;;;;;;;;;;;
2023/12/01 05:59:42;;;;;;;2.7;2.3;;;;;;;;;;;;;
2023/12/01 06:02:11;;;;;;;3.3;2.3;;;;;;;;;;;;;
2023/12/01 06:04:31;;;;;;;3.9;3.2;;;;;;;;;;;;;
2023/12/01 06:06:57;;;;;;;5.1;3.2;;;;;;;;;;;;;
2023/12/01 06:09:23;;;;;;;6.6;4.7;;;;;;;;;;;;;
2023/12/01 06:11:49;;;;;;;6.5;4.9;;;;;;;;;;;;;
2023/12/01 06:14:15;;;;;;;6.2;4.1;;;;;;;;;;;;;
2023/12/01 06:16:41;;;;;;;4.2;3.2;;;;;;;;;;;;;
2023/12/01 06:19:06;;;;;;;4.6;3.2;;;;;;;;;;;;;
2023/12/01 06:21:33;;;;;;;4.2;2.9;;;;;;;;;;;;;
2023/12/01 06:23:58;;;;;;;4.2;2.8;;;;;;;;;;;;;
2023/12/01 06:26:24;;;;;;;3.1;2.3;;;;;;;;;;;;;
2023/12/01 06:28:49;;;;;;;2.5;2;;;;;;;;;;;;;
2023/12/01 06:31:16;;;;;;;2.8;1.9;;;;;;;;;;;;;
2023/12/01 06:33:41;;;;;;;2.5;1.7;;;;;;;;;;;;;
2023/12/01 06:36:09;;;;;;;4.2;3;;;;;;;;;;;;;
2023/12/01 06:38:38;;;;;;;2.4;2;;;;;;;;;;;;;
2023/12/01 06:41:04;;;;;;;3.6;1.9;;;;;;;;;;;;;
2023/12/01 06:43:30;;;;;;;3;2;;;;;;;;;;;;;
2023/12/01 06:45:54;;;;;;;3.3;1.9;;;;;;;;;;;;;
2023/12/01 06:48:20;;;;;;;2.6;1.9;;;;;;;;;;;;;
2023/12/01 06:50:47;;;;;;;3;2.4;;;;;;;;;;;;;
2023/12/01 06:53:13;;;;;;;2.8;2.3;;;;;;;;;;;;;
2023/12/01 06:55:39;;;;;;;4.6;2.3;;;;;;;;;;;;;
2023/12/01 06:58:09;;;;;;;4.9;3.1;;;;;;;;;;;;;
2023/12/01 07:00:33;;;;;;;5.1;4;;;;;;;;;;;;;
2023/12/01 07:03:00;;;;;;;4.6;4.1;;;;;;;;;;;;;
2023/12/01 07:05:25;;;;;;;6.1;4.2;;;;;;;;;;;;;
2023/12/01 07:07:53;;;;;;;5.8;4.4;;;;;;;;;;;;;
2023/12/01 07:10:18;;;;;;;4.8;3.4;;;;;;;;;;;;;
2023/12/01 07:12:46;;;;;;;4.8;3.6;;;;;;;;;;;;;
2023/12/01 07:15:11;;;;;;;6.2;4.4;;;;;;;;;;;;;
2023/12/01 07:17:38;;;;;;;4.4;3.4;;;;;;;;;;;;;
2023/12/01 07:20:12;;;;;;;4.1;2.8;;;;;;;;;;;;;
2023/12/01 07:22:29;;;;;;;7.7;5.4;;;;;;;;;;;;;
2023/12/01 07:24:57;;;;;;;8.3;5.6;;;;;;;;;;;;;
2023/12/01 07:27:25;;;;;;;9.2;5.4;;;;;;;;;;;;;
2023/12/01 07:29:47;;;;;;;6.7;4.7;;;;;;;;;;;;;
2023/12/01 07:32:13;;;;;;;6;4.4;;;;;;;;;;;;;
2023/12/01 07:34:38;;;;;;;7.1;4.4;;;;;;;;;;;;;
2023/12/01 07:37:10;;;;;;;7.2;4.4;;;;;;;;;;;;;
2023/12/01 07:39:29;;;;;;;5.2;3.5;;;;;;;;;;;;;
2023/12/01 07:41:58;;;;;;;3.5;3;;;;;;;;;;;;;
2023/12/01 07:44:22;;;;;;;3.5;2.7;;;;;;;;;;;;;
2023/12/01 07:46:53;;;;;;;5.7;3.5;;;;;;;;;;;;;
2023/12/01 07:49:17;;;;;;;7.4;3.5;;;;;;;;;;;;;
2023/12/01 07:51:43;;;;;;;4.3;3.4;;;;;;;;;;;;;
2023/12/01 07:54:08;;;;;;;4.5;3.6;;;;;;;;;;;;;
2023/12/01 07:56:34;;;;;;;5.1;3.6;;;;;;;;;;;;;
2023/12/01 07:58:59;;;;;;;5.3;3.6;;;;;;;;;;;;;
2023/12/01 08:01:28;;;;;;;4.6;3.6;;;;;;;;;;;;;
2023/12/01 08:03:53;;;;;;;4;3.3;;;;;;;;;;;;;
2023/12/01 08:06:20;;;;;;;5.4;3.4;;;;;;;;;;;;;
2023/12/01 08:08:46;;;;;;;4.3;3.5;;;;;;;;;;;;;
2023/12/01 08:11:12;;;;;;;5.5;3.3;;;;;;;;;;;;;
2023/12/01 08:13:37;;;;;;;5.1;3.2;;;;;;;;;;;;;
2023/12/01 08:16:03;;;;;;;5.9;3.3;;;;;;;;;;;;;
2023/12/01 08:18:28;;;;;;;4.6;3.1;;;;;;;;;;;;;
2023/12/01 08:20:56;;;;;;;6.2;5.2;;;;;;;;;;;;;
2023/12/01 08:23:21;;;;;;;8.1;6;;;;;;;;;;;;;
2023/12/01 08:25:47;;;;;;;8.8;6.2;;;;;;;;;;;;;
2023/12/01 08:28:11;;;;;;;9;5.8;;;;;;;;;;;;;
2023/12/01 08:30:41;;;;;;;7;5.2;;;;;;;;;;;;;
2023/12/01 08:33:06;;;;;;;5.4;4.2;;;;;;;;;;;;;
2023/12/01 08:35:31;;;;;;;4.7;4.1;;;;;;;;;;;;;
2023/12/01 08:37:56;;;;;;;5.9;4.1;;;;;;;;;;;;;
2023/12/01 08:40:25;;;;;;;6.5;4.8;;;;;;;;;;;;;
2023/12/01 08:42:54;;;;;;;5.7;4.1;;;;;;;;;;;;;
2023/12/01 08:45:19;;;;;;;4.3;3.6;;;;;;;;;;;;;
2023/12/01 08:47:51;;;;;;;5.6;4.9;;;;;;;;;;;;;
2023/12/01 08:50:17;;;;;;;7.3;4.8;;;;;;;;;;;;;
2023/12/01 08:52:39;;;;;;;6.6;4.8;;;;;;;;;;;;;
2023/12/01 08:55:10;;;;;;;5.7;4.4;;;;;;;;;;;;;
2023/12/01 08:57:35;;;;;;;8.3;5.1;;;;;;;;;;;;;
2023/12/01 09:00:00;;;;;;;7.4;4.5;;;;;;;;;;;;;
2023/12/01 09:02:27;;;;;;;6.3;4.3;;;;;;;;;;;;;
2023/12/01 09:04:52;;;;;;;6.7;4.8;;;;;;;;;;;;;
2023/12/01 09:07:17;;;;;;;7.1;4.9;;;;;;;;;;;;;
2023/12/01 09:09:42;;;;;;;6.1;4.8;;;;;;;;;;;;;
2023/12/01 09:12:09;;;;;;;8.2;4.6;;;;;;;;;;;;;
2023/12/01 09:14:34;;;;;;;6.8;5;;;;;;;;;;;;;
2023/12/01 09:17:01;;;;;;;6;4.5;;;;;;;;;;;;;
2023/12/01 09:19:26;;;;;;;7.6;5.2;;;;;;;;;;;;;
2023/12/01 09:21:51;;;;;;;9.2;6.3;;;;;;;;;;;;;
2023/12/01 09:24:16;;;;;;;8.3;5.9;;;;;;;;;;;;;
2023/12/01 09:26:43;;;;;;;10.1;7;;;;;;;;;;;;;
2023/12/01 09:29:08;;;;;;;11.6;7.9;;;;;;;;;;;;;
2023/12/01 09:31:35;;;;;;;9.7;5.9;;;;;;;;;;;;;
2023/12/01 09:34:00;;;;;;;8.2;5.5;;;;;;;;;;;;;
2023/12/01 09:36:27;;;;;;;7.8;5.3;;;;;;;;;;;;;
2023/12/01 09:38:51;;;;;;;7.2;5.3;;;;;;;;;;;;;
2023/12/01 09:41:17;;;;;;;6.7;5.5;;;;;;;;;;;;;
2023/12/01 09:43:43;;;;;;;11.7;5.7;;;;;;;;;;;;;
2023/12/01 09:46:09;;;;;;;7.6;5;;;;;;;;;;;;;
2023/12/01 09:48:34;;;;;;;8.5;5.6;;;;;;;;;;;;;
2023/12/01 09:51:00;;;;;;;8;6.4;;;;;;;;;;;;;
2023/12/01 09:53:26;;;;;;;15.3;9.6;;;;;;;;;;;;;
2023/12/01 09:55:53;;;;;;;14.8;10.7;;;;;;;;;;;;;
2023/12/01 09:58:19;;;;;;;14.8;9.6;;;;;;;;;;;;;
2023/12/01 10:00:43;;;;;;;15.2;9.9;;;;;;;;;;;;;
2023/12/01 10:03:08;;;;;;;14;9.3;;;;;;;;;;;;;
2023/12/01 10:05:36;;;;;;;13.6;9.3;;;;;;;;;;;;;
2023/12/01 10:08:01;;;;;;;9.6;7.3;;;;;;;;;;;;;
2023/12/01 10:10:28;;;;;;;10.7;7.4;;;;;;;;;;;;;
2023/12/01 10:12:54;;;;;;;10.3;7;;;;;;;;;;;;;
2023/12/01 10:15:20;;;;;;;8.8;6.3;;;;;;;;;;;;;
2023/12/01 10:17:45;;;;;;;6.3;4.8;;;;;;;;;;;;;
2023/12/01 10:20:13;;;;;;;6.9;4.7;;;;;;;;;;;;;
2023/12/01 10:22:35;;;;;;;6.4;4.3;;;;;;;;;;;;;
2023/12/01 10:25:05;;;;;;;6.6;4.5;;;;;;;;;;;;;
2023/12/01 10:27:29;;;;;;;6.9;5.1;;;;;;;;;;;;;
2023/12/01 10:29:53;;;;;;;6.9;4.9;;;;;;;;;;;;;
2023/12/01 10:32:19;;;;;;;10.6;6;;;;;;;;;;;;;
2023/12/01 10:34:44;;;;;;;7.3;5.6;;;;;;;;;;;;;
2023/12/01 10:37:09;;;;;;;9.6;6.5;;;;;;;;;;;;;
2023/12/01 10:39:34;;;;;;;11;6.2;;;;;;;;;;;;;
2023/12/01 10:42:02;;;;;;;5.5;3.8;;;;;;;;;;;;;
2023/12/01 10:44:27;;;;;;;8.1;5;;;;;;;;;;;;;
2023/12/01 10:46:53;;;;;;;13.4;8.4;;;;;;;;;;;;;
2023/12/01 10:49:18;;;;;;;9.5;6.3;;;;;;;;;;;;;
2023/12/01 10:51:43;;;;;;;8.1;5.4;;;;;;;;;;;;;
2023/12/01 10:54:08;;;;;;;9.4;5.2;;;;;;;;;;;;;
2023/12/01 10:56:35;;;;;;;7.4;4.4;;;;;;;;;;;;;
2023/12/01 10:59:01;;;;;;;6.9;4.9;;;;;;;;;;;;;
2023/12/01 11:01:26;;;;;;;12.1;8.2;;;;;;;;;;;;;
2023/12/01 11:03:52;;;;;;;12;8.3;;;;;;;;;;;;;
2023/12/01 11:06:17;;;;;;;11.5;7.9;;;;;;;;;;;;;
2023/12/01 11:08:44;;;;;;;14.5;8.8;;;;;;;;;;;;;
2023/12/01 11:11:10;;;;;;;10.8;7.9;;;;;;;;;;;;;
2023/12/01 11:13:34;;;;;;;11;7.2;;;;;;;;;;;;;
2023/12/01 11:16:00;;;;;;;10.5;7.9;;;;;;;;;;;;;
2023/12/01 11:18:25;;;;;;;12.1;8.2;;;;;;;;;;;;;
2023/12/01 11:20:50;;;;;;;11.2;7.9;;;;;;;;;;;;;
2023/12/01 11:23:15;;;;;;;11.9;7.3;;;;;;;;;;;;;
2023/12/01 11:25:45;;;;;;;10.5;7.7;;;;;;;;;;;;;
2023/12/01 11:28:09;;;;;;;11;8.2;;;;;;;;;;;;;
2023/12/01 11:30:35;;;;;;;10.5;7.8;;;;;;;;;;;;;
2023/12/01 11:32:59;;;;;;;9.4;6.8;;;;;;;;;;;;;
2023/12/01 11:35:26;;;;;;;9.4;6.6;;;;;;;;;;;;;
2023/12/01 11:37:51;;;;;;;9;6.7;;;;;;;;;;;;;
2023/12/01 11:40:18;;;;;;;8.8;7.4;;;;;;;;;;;;;
2023/12/01 11:42:44;;;;;;;10.1;7.1;;;;;;;;;;;;;
2023/12/01 11:45:09;;;;;;;9.7;7;;;;;;;;;;;;;
2023/12/01 11:47:34;;;;;;;8.3;6.8;;;;;;;;;;;;;
2023/12/01 11:50:00;;;;;;;8.9;6.9;;;;;;;;;;;;;
2023/12/01 11:52:25;;;;;;;10.5;6.7;;;;;;;;;;;;;
2023/12/01 11:54:51;;;;;;;10.5;7;;;;;;;;;;;;;
2023/12/01 11:57:17;;;;;;;9.5;6.8;;;;;;;;;;;;;
2023/12/01 11:59:44;;;;;;;9.5;6.8;;;;;;;;;;;;;
2023/12/01 12:02:09;;;;;;;11.8;7;;;;;;;;;;;;;
2023/12/01 12:04:37;;;;;;;10.5;6.6;;;;;;;;;;;;;
2023/12/01 12:07:04;;;;;;;10.5;8;;;;;;;;;;;;;
2023/12/01 12:09:26;;;;;;;11.5;7.2;;;;;;;;;;;;;
2023/12/01 12:11:55;;;;;;;10;6.6;;;;;;;;;;;;;
2023/12/01 12:14:18;;;;;;;9.2;6.6;;;;;;;;;;;;;
2023/12/01 12:16:44;;;;;;;9.6;6.7;;;;;;;;;;;;;
2023/12/01 12:19:09;;;;;;;10.9;7.6;;;;;;;;;;;;;
2023/12/01 12:21:35;;;;;;;11;8.3;;;;;;;;;;;;;
2023/12/01 12:24:00;;;;;;;12;8;;;;;;;;;;;;;
2023/12/01 12:26:26;;;;;;;11;7.5;;;;;;;;;;;;;
2023/12/01 12:28:52;;;;;;;10.9;7.3;;;;;;;;;;;;;
2023/12/01 12:31:16;;;;;;;14.1;9.2;;;;;;;;;;;;;
2023/12/01 12:33:43;;;;;;;30.1;15.5;;;;;;;;;;;;;
2023/12/01 12:36:08;;;;;;;30.1;14.6;;;;;;;;;;;;;
2023/12/01 12:38:35;;;;;;;27.5;14.2;;;;;;;;;;;;;
2023/12/01 12:40:59;;;;;;;32.1;16.1;;;;;;;;;;;;;
2023/12/01 12:43:25;;;;;;;31.7;17.6;;;;;;;;;;;;;
2023/12/01 12:45:52;;;;;;;30.5;18.4;;;;;;;;;;;;;
2023/12/01 12:48:17;;;;;;;26;15.4;;;;;;;;;;;;;
2023/12/01 12:50:43;;;;;;;20.6;14;;;;;;;;;;;;;
2023/12/01 12:53:10;;;;;;;21.1;13.4;;;;;;;;;;;;;
2023/12/01 12:55:35;;;;;;;19.8;12.8;;;;;;;;;;;;;
2023/12/01 12:58:00;;;;;;;17.5;11.8;;;;;;;;;;;;;
2023/12/01 13:00:29;;;;;;;14.1;11;;;;;;;;;;;;;
2023/12/01 13:02:54;;;;;;;17.1;11.4;;;;;;;;;;;;;
2023/12/01 13:05:26;;;;;;;16.4;10.2;;;;;;;;;;;;;
2023/12/01 13:08:03;;;;;;;13.1;8.9;;;;;;;;;;;;;
2023/12/01 13:10:27;;;;;;;13.8;9.9;;;;;;;;;;;;;
2023/12/01 13:12:54;;;;;;;17.2;11.4;;;;;;;;;;;;;
2023/12/01 13:15:18;;;;;;;14.6;9.8;;;;;;;;;;;;;
2023/12/01 13:17:46;;;;;;;14.8;10.7;;;;;;;;;;;;;
2023/12/01 13:20:11;;;;;;;14.2;10.2;;;;;;;;;;;;;
2023/12/01 13:22:38;;;;;;;14.8;10.7;;;;;;;;;;;;;
2023/12/01 13:25:04;;;;;;;17.2;12.3;;;;;;;;;;;;;
2023/12/01 13:27:32;;;;;;;18.1;13.1;;;;;;;;;;;;;
2023/12/01 13:29:57;;;;;;;34;20.2;;;;;;;;;;;;;
2023/12/01 13:32:22;;;;;;;32.6;22.4;;;;;;;;;;;;;
2023/12/01 13:34:47;;;;;;;30.6;20.9;;;;;;;;;;;;;
2023/12/01 13:37:15;;;;;;;20.4;14.5;;;;;;;;;;;;;
2023/12/01 13:39:40;;;;;;;21.5;15.5;;;;;;;;;;;;;
2023/12/01 13:42:07;;;;;;;17.4;12.8;;;;;;;;;;;;;
2023/12/01 13:44:32;;;;;;;14.8;11.3;;;;;;;;;;;;;
2023/12/01 13:46:59;;;;;;;12.6;9.5;;;;;;;;;;;;;
2023/12/01 13:49:22;;;;;;;12.2;9.1;;;;;;;;;;;;;
2023/12/01 13:51:49;;;;;;;14.4;10.6;;;;;;;;;;;;;
2023/12/01 13:54:13;;;;;;;12.1;9.3;;;;;;;;;;;;;
2023/12/01 13:56:43;;;;;;;11.6;8.8;;;;;;;;;;;;;
2023/12/01 13:59:06;;;;;;;10.1;7.7;;;;;;;;;;;;;
2023/12/01 14:01:34;;;;;;;12;8.4;;;;;;;;;;;;;
2023/12/01 14:04:00;;;;;;;12;9.1;;;;;;;;;;;;;
2023/12/01 14:06:26;;;;;;;14.7;9.4;;;;;;;;;;;;;
2023/12/01 14:08:51;;;;;;;15.3;10.2;;;;;;;;;;;;;
2023/12/01 14:11:16;;;;;;;14.3;10;;;;;;;;;;;;;
2023/12/01 14:13:41;;;;;;;13.5;9.8;;;;;;;;;;;;;
2023/12/01 14:16:07;;;;;;;14.5;10.4;;;;;;;;;;;;;
2023/12/01 14:18:33;;;;;;;15.3;10.5;;;;;;;;;;;;;
2023/12/01 14:21:00;;;;;;;13.8;10.3;;;;;;;;;;;;;
2023/12/01 14:23:25;;;;;;;14.3;10.7;;;;;;;;;;;;;
2023/12/01 14:25:52;;;;;;;15.7;10.7;;;;;;;;;;;;;
2023/12/01 14:28:17;;;;;;;14.5;10.7;;;;;;;;;;;;;
2023/12/01 14:30:43;;;;;;;18.1;12.9;;;;;;;;;;;;;
2023/12/01 14:33:08;;;;;;;20;13.6;;;;;;;;;;;;;
2023/12/01 14:35:34;;;;;;;21.9;14.3;;;;;;;;;;;;;
2023/12/01 14:37:59;;;;;;;19.9;12.5;;;;;;;;;;;;;
2023/12/01 14:40:25;;;;;;;10.3;6.9;;;;;;;;;;;;;
2023/12/01 14:42:51;;;;;;;10.8;7.1;;;;;;;;;;;;;
2023/12/01 14:45:17;;;;;;;9.7;5.4;;;;;;;;;;;;;
2023/12/01 14:47:42;;;;;;;3.3;2.4;;;;;;;;;;;;;
2023/12/01 14:50:11;;;;;;;5.3;3;;;;;;;;;;;;;
2023/12/01 14:52:40;;;;;;;2.9;2.5;;;;;;;;;;;;;
2023/12/01 14:55:05;;;;;;;2.3;2;;;;;;;;;;;;;
2023/12/01 14:57:34;;;;;;;5.2;4.1;;;;;;;;;;;;;
2023/12/01 15:00:07;;;;;;;6.4;4.8;;;;;;;;;;;;;
2023/12/01 15:02:29;;;;;;;6.5;5.1;;;;;;;;;;;;;
2023/12/01 15:04:59;;;;;;;4;3.1;;;;;;;;;;;;;
2023/12/01 15:07:27;;;;;;;5;3.7;;;;;;;;;;;;;
2023/12/01 15:09:51;;;;;;;6.6;4.5;;;;;;;;;;;;;
2023/12/01 15:12:22;;;;;;;14.9;9.2;;;;;;;;;;;;;
2023/12/01 15:14:51;;;;;;;13.2;7.7;;;;;;;;;;;;;
2023/12/01 15:17:22;;;;;;;9.1;6.6;;;;;;;;;;;;;
2023/12/01 15:19:54;;;;;;;3.6;3.1;;;;;;;;;;;;;
2023/12/01 15:22:23;;;;;;;3.1;2.7;;;;;;;;;;;;;
2023/12/01 15:24:49;;;;;;;2.1;1.9;;;;;;;;;;;;;
2023/12/01 15:27:14;;;;;;;3.7;2.8;;;;;;;;;;;;;
2023/12/01 15:29:39;;;;;;;8.7;7.3;;;;;;;;;;;;;
2023/12/01 15:32:05;;;;;;;13.5;9.6;;;;;;;;;;;;;
2023/12/01 15:34:31;;;;;;;11.3;7;;;;;;;;;;;;;
2023/12/01 15:36:59;;;;;;;6.3;4.9;;;;;;;;;;;;;
2023/12/01 15:39:24;;;;;;;7.8;5.9;;;;;;;;;;;;;
2023/12/01 15:41:51;;;;;;;6.7;5;;;;;;;;;;;;;
2023/12/01 15:44:16;;;;;;;4.9;4.4;;;;;;;;;;;;;
2023/12/01 15:46:42;;;;;;;3;2.7;;;;;;;;;;;;;
2023/12/01 15:49:08;;;;;;;4.4;3.4;;;;;;;;;;;;;
2023/12/01 15:51:36;;;;;;;9.1;4.8;;;;;;;;;;;;;
2023/12/01 15:54:01;;;;;;;6.4;4.8;;;;;;;;;;;;;
2023/12/01 15:56:27;;;;;;;3.3;3;;;;;;;;;;;;;
2023/12/01 15:58:55;;;;;;;7.5;4.4;;;;;;;;;;;;;
2023/12/01 16:01:17;;;;;;;9.4;5.7;;;;;;;;;;;;;
2023/12/01 16:03:46;;;;;;;5;3.7;;;;;;;;;;;;;
2023/12/01 16:06:14;;;;;;;2.4;2;;;;;;;;;;;;;
2023/12/01 16:08:39;;;;;;;2.9;2.5;;;;;;;;;;;;;
2023/12/01 16:11:06;;;;;;;3.7;2.4;;;;;;;;;;;;;
2023/12/01 16:13:30;;;;;;;6;4;;;;;;;;;;;;;
2023/12/01 16:15:56;;;;;;;7;4.8;;;;;;;;;;;;;
2023/12/01 16:18:23;;;;;;;5.1;2.8;;;;;;;;;;;;;
2023/12/01 16:20:49;;;;;;;2.8;2.2;;;;;;;;;;;;;
2023/12/01 16:23:14;;;;;;;4.6;3.7;;;;;;;;;;;;;
2023/12/01 16:25:40;;;;;;;5.7;4.3;;;;;;;;;;;;;
2023/12/01 16:28:05;;;;;;;5.3;4.8;;;;;;;;;;;;;
2023/12/01 16:30:32;;;;;;;9.3;7.3;;;;;;;;;;;;;
2023/12/01 16:32:58;;;;;;;18;10.7;;;;;;;;;;;;;
2023/12/01 16:35:24;;;;;;;24.9;13;;;;;;;;;;;;;
2023/12/01 16:37:49;;;;;;;13;8.7;;;;;;;;;;;;;
2023/12/01 16:40:19;;;;;;;9.8;7;;;;;;;;;;;;;
2023/12/01 16:42:48;;;;;;;11.4;7.5;;;;;;;;;;;;;
2023/12/01 16:45:17;;;;;;;4.4;3.9;;;;;;;;;;;;;
2023/12/01 16:47:42;;;;;;;5.5;4.1;;;;;;;;;;;;;
2023/12/01 16:50:13;;;;;;;7.1;5.8;;;;;;;;;;;;;
2023/12/01 16:52:42;;;;;;;7;5.1;;;;;;;;;;;;;
2023/12/01 16:55:14;;;;;;;5.9;5.2;;;;;;;;;;;;;
2023/12/01 16:57:38;;;;;;;6.5;4.4;;;;;;;;;;;;;
2023/12/01 17:00:07;;;;;;;5.7;3.9;;;;;;;;;;;;;
2023/12/01 17:02:32;;;;;;;7.3;5;;;;;;;;;;;;;
2023/12/01 17:04:58;;;;;;;3.6;2.8;;;;;;;;;;;;;
2023/12/01 17:07:23;;;;;;;9.4;6.1;;;;;;;;;;;;;
2023/12/01 17:09:49;;;;;;;9.3;6.9;;;;;;;;;;;;;
2023/12/01 17:12:14;;;;;;;5.8;4;;;;;;;;;;;;;
2023/12/01 17:14:40;;;;;;;6.1;4.7;;;;;;;;;;;;;
2023/12/01 17:17:05;;;;;;;10.8;8.9;;;;;;;;;;;;;
2023/12/01 17:19:32;;;;;;;10.3;7.7;;;;;;;;;;;;;
2023/12/01 17:21:57;;;;;;;10.4;7.8;;;;;;;;;;;;;
2023/12/01 17:24:24;;;;;;;5.3;4.7;;;;;;;;;;;;;
2023/12/01 17:26:49;;;;;;;8.8;6.3;;;;;;;;;;;;;
2023/12/01 17:29:17;;;;;;;6.4;4.2;;;;;;;;;;;;;
2023/12/01 17:31:42;;;;;;;4.1;3.7;;;;;;;;;;;;;
2023/12/01 17:34:22;;;;;;;4.4;3.7;;;;;;;;;;;;;
2023/12/01 17:36:33;;;;;;;5;3.5;;;;;;;;;;;;;
2023/12/01 17:38:59;;;;;;;3;2.7;;;;;;;;;;;;;
2023/12/01 17:41:24;;;;;;;3;2.7;;;;;;;;;;;;;
2023/12/01 17:43:52;;;;;;;2.8;2.5;;;;;;;;;;;;;
2023/12/01 17:46:17;;;;;;;4.2;3.8;;;;;;;;;;;;;
2023/12/01 17:48:44;;;;;;;4.1;3.4;;;;;;;;;;;;;
2023/12/01 17:51:09;;;;;;;5;3.5;;;;;;;;;;;;;
2023/12/01 17:53:37;;;;;;;2.5;2.3;;;;;;;;;;;;;
2023/12/01 17:56:02;;;;;;;2.8;2.5;;;;;;;;;;;;;
2023/12/01 17:58:30;;;;;;;2.8;2.4;;;;;;;;;;;;;
2023/12/01 18:00:55;;;;;;;3.3;2.2;;;;;;;;;;;;;
2023/12/01 18:03:21;;;;;;;2.8;2.5;;;;;;;;;;;;;
2023/12/01 18:05:46;;;;;;;3.1;2.5;;;;;;;;;;;;;
2023/12/01 18:08:12;;;;;;;2.1;2;;;;;;;;;;;;;
2023/12/01 18:10:37;;;;;;;2.1;1.9;;;;;;;;;;;;;
2023/12/01 18:13:04;;;;;;;1.7;1.6;;;;;;;;;;;;;
2023/12/01 18:15:28;;;;;;;2.2;1.7;;;;;;;;;;;;;
2023/12/01 18:17:53;;;;;;;1.8;1.7;;;;;;;;;;;;;
2023/12/01 18:20:18;;;;;;;1.5;1.4;;;;;;;;;;;;;
2023/12/01 18:22:46;;;;;;;1.8;1.7;;;;;;;;;;;;;
2023/12/01 18:25:11;;;;;;;1.8;1.7;;;;;;;;;;;;;
2023/12/01 18:27:38;;;;;;;2;1.8;;;;;;;;;;;;;
2023/12/01 18:30:03;;;;;;;3;2;;;;;;;;;;;;;
2023/12/01 18:32:30;;;;;;;2.2;2;;;;;;;;;;;;;
2023/12/01 18:34:55;;;;;;;2.4;1.8;;;;;;;;;;;;;
2023/12/01 18:37:21;;;;;;;2.6;2.3;;;;;;;;;;;;;
2023/12/01 18:39:46;;;;;;;2.9;2.4;;;;;;;;;;;;;
2023/12/01 18:42:14;;;;;;;4.4;3.4;;;;;;;;;;;;;
2023/12/01 18:44:39;;;;;;;2.8;2.5;;;;;;;;;;;;;
2023/12/01 18:47:05;;;;;;;3.3;3;;;;;;;;;;;;;
2023/12/01 18:49:31;;;;;;;3.3;2.6;;;;;;;;;;;;;
2023/12/01 18:51:57;;;;;;;4.8;3.4;;;;;;;;;;;;;
2023/12/01 18:54:22;;;;;;;5.3;3.8;;;;;;;;;;;;;
2023/12/01 18:56:52;;;;;;;6;4.2;;;;;;;;;;;;;
2023/12/01 18:59:15;;;;;;;6.7;3.8;;;;;;;;;;;;;
2023/12/01 19:01:41;;;;;;;6.5;4.1;;;;;;;;;;;;;
2023/12/01 19:04:06;;;;;;;5;3.1;;;;;;;;;;;;;
2023/12/01 19:06:32;;;;;;;3.6;2.8;;;;;;;;;;;;;
2023/12/01 19:08:57;;;;;;;3.7;3.1;;;;;;;;;;;;;
2023/12/01 19:11:23;;;;;;;3.1;2.8;;;;;;;;;;;;;
2023/12/01 19:13:50;;;;;;;2.5;2.3;;;;;;;;;;;;;
2023/12/01 19:16:13;;;;;;;2.8;2.2;;;;;;;;;;;;;
2023/12/01 19:18:39;;;;;;;2.7;2.3;;;;;;;;;;;;;
2023/12/01 19:21:04;;;;;;;2.4;2.2;;;;;;;;;;;;;
2023/12/01 19:23:29;;;;;;;2.2;2;;;;;;;;;;;;;
2023/12/01 19:25:55;;;;;;;2.7;2.1;;;;;;;;;;;;;
2023/12/01 19:28:22;;;;;;;3.3;1.9;;;;;;;;;;;;;
2023/12/01 19:30:47;;;;;;;2.6;2.4;;;;;;;;;;;;;
2023/12/01 19:33:13;;;;;;;3.2;2.5;;;;;;;;;;;;;
2023/12/01 19:35:38;;;;;;;2.7;2.5;;;;;;;;;;;;;
2023/12/01 19:38:04;;;;;;;3.1;2.8;;;;;;;;;;;;;
2023/12/01 19:40:29;;;;;;;2.8;2.5;;;;;;;;;;;;;
2023/12/01 19:42:56;;;;;;;2.4;2.2;;;;;;;;;;;;;
2023/12/01 19:45:21;;;;;;;3;2.4;;;;;;;;;;;;;
2023/12/01 19:47:46;;;;;;;2.8;2.6;;;;;;;;;;;;;
2023/12/01 19:50:12;;;;;;;2.7;2.5;;;;;;;;;;;;;
2023/12/01 19:52:40;;;;;;;2.7;2.5;;;;;;;;;;;;;
2023/12/01 19:55:07;;;;;;;3.9;2.6;;;;;;;;;;;;;
2023/12/01 19:57:30;;;;;;;3.1;2.8;;;;;;;;;;;;;
2023/12/01 19:59:56;;;;;;;2.7;2.4;;;;;;;;;;;;;
2023/12/01 20:02:21;;;;;;;3.3;2.7;;;;;;;;;;;;;
2023/12/01 20:04:48;;;;;;;3.2;2.5;;;;;;;;;;;;;
2023/12/01 20:07:13;;;;;;;3.3;2.8;;;;;;;;;;;;;
2023/12/01 20:09:39;;;;;;;3.1;2.7;;;;;;;;;;;;;
2023/12/01 20:12:04;;;;;;;3.8;2.8;;;;;;;;;;;;;
2023/12/01 20:14:31;;;;;;;3.7;3.1;;;;;;;;;;;;;
2023/12/01 20:16:56;;;;;;;3.6;3;;;;;;;;;;;;;
2023/12/01 20:19:22;;;;;;;3.9;3.1;;;;;;;;;;;;;
2023/12/01 20:21:47;;;;;;;3.7;3.1;;;;;;;;;;;;;
2023/12/01 20:24:13;;;;;;;3.1;2.6;;;;;;;;;;;;;
2023/12/01 20:26:38;;;;;;;3;2.3;;;;;;;;;;;;;
2023/12/01 20:29:05;;;;;;;2.8;2.3;;;;;;;;;;;;;
2023/12/01 20:31:30;;;;;;;2.8;2.4;;;;;;;;;;;;;
2023/12/01 20:33:55;;;;;;;3.2;2.9;;;;;;;;;;;;;
2023/12/01 20:36:21;;;;;;;4.5;3.1;;;;;;;;;;;;;